ADDS METAR Data INFO
IDs: Format: Raw Decoded Include TAF

Data at: 1349 UTC 23 Jun 2018

KSBO 231333Z AUTO 27008KT 10SM OVC015 28/24 A2997 RMK AO2
KSBO 231253Z AUTO 28007G17KT 10SM OVC013 27/24 A2997 RMK AO2
KSBO 231213Z AUTO 25007G15KT 10SM SCT013 BKN080 27/24 A2995 RMK AO2
KSBO 231153Z AUTO 26006KT 10SM CLR 26/23 A2995 RMK AO2
KSBO 231133Z AUTO 26007KT 10SM CLR 26/23 A2994 RMK AO2
KSBO 231114Z AUTO 25004KT 10SM CLR 26/23 A2993 RMK AO2
KSBO 231053Z AUTO 24006KT 10SM CLR 25/23 A2992 RMK AO2
KSBO 231033Z AUTO 25005KT 10SM CLR 25/23 A2992 RMK AO2
KSBO 231013Z AUTO 24003KT 10SM CLR 26/23 A2992 RMK AO2
KSBO 230932Z AUTO 24006KT 10SM CLR 26/23 A2990 RMK AO2
KSBO 230913Z AUTO 24004KT 10SM CLR 26/23 A2990 RMK AO2
KSBO 230853Z AUTO 23004KT 10SM CLR 26/24 A2990 RMK AO2
KSBO 230833Z AUTO 23004KT 10SM CLR 26/24 A2990 RMK AO2
KSBO 230814Z AUTO 22003KT 10SM CLR 26/24 A2990 RMK AO2
KSBO 230753Z AUTO 19004KT 10SM CLR 26/23 A2990 RMK AO2
KSBO 230733Z AUTO 00000KT 10SM CLR 26/23 A2990 RMK AO2
KSBO 230712Z AUTO 16003KT 10SM SCT035 26/23 A2989 RMK AO2
KSBO 230653Z AUTO 00000KT 10SM CLR 25/23 A2990 RMK AO2
KSBO 230633Z AUTO 00000KT 10SM CLR 25/22 A2990 RMK AO2
KSBO 230612Z AUTO 14003KT 10SM CLR 25/22 A2990 RMK AO2
KSBO 230553Z AUTO 13003KT 10SM CLR 26/22 A2990 RMK AO2
KSBO 230534Z AUTO 00000KT 10SM CLR 26/22 A2991 RMK AO2
KSBO 230433Z AUTO 00000KT 10SM CLR 26/22 A2993 RMK AO2 LTG DSNT SW
KSBO 230353Z AUTO 31004KT 10SM VCTS SCT022 SCT030 BKN041 25/22 A2992 RMK AO2 LTG DSNT SW
KSBO 230333Z AUTO 29009G26KT 10SM TS SCT024 BKN040 BKN046 27/22 A2994 RMK AO2 LTG DSNT SE THRU SW
KSBO 230314Z AUTO 22005KT 10SM SCT039 29/24 A2991 RMK AO2 LTG DSNT SE THRU SW
KSBO 230252Z AUTO 20006KT 10SM VCTS CLR 29/24 A2989 RMK AO2 LTG DSNT SE THRU SW
KSBO 230232Z AUTO 20006KT 10SM SCT047 29/24 A2988 RMK AO2 LTG DSNT E THRU S
KSBO 230213Z AUTO 18004KT 10SM CLR 29/24 A2988 RMK AO2 LTG DSNT SE
KSBO 230153Z AUTO 19004KT 10SM CLR 29/24 A2987 RMK AO2 LTG DSNT E THRU S
KSBO 230112Z AUTO 19003KT 10SM CLR 30/23 A2987 RMK AO2 LTG DSNT SE
KSBO 230053Z AUTO 00000KT 10SM CLR 31/23 A2986 RMK AO2 LTG DSNT SW
KSBO 230033Z AUTO 00000KT 10SM CLR 31/23 A2986 RMK AO2
KSBO 230013Z AUTO 21003KT 10SM CLR 32/23 A2985 RMK AO2
KSBO 222333Z AUTO 25008KT 10SM CLR 33/22 A2985 RMK AO2
KSBO 222313Z AUTO 24006KT 10SM CLR 33/22 A2984 RMK AO2
KSBO 222252Z AUTO 22008KT 10SM SCT050 34/22 A2984 RMK AO2
KSBO 222232Z AUTO 24006KT 10SM SCT050 34/22 A2983 RMK AO2
KSBO 222213Z AUTO 23006KT 10SM SCT049 34/22 A2982 RMK AO2
KSBO 222153Z AUTO 20008KT 10SM BKN049 35/22 A2983 RMK AO2
KSBO 222133Z AUTO 21006KT 10SM BKN049 BKN075 34/22 A2984 RMK AO2
KSBO 222114Z AUTO 23007G14KT 10SM BKN049 BKN075 34/23 A2985 RMK AO2
KSBO 222053Z AUTO 24009KT 10SM BKN049 34/23 A2985 RMK AO2
KSBO 222033Z AUTO 22005KT 10SM SCT049 34/22 A2986 RMK AO2
KSBO 221952Z AUTO 22009G14KT 10SM SCT049 SCT055 35/22 A2987 RMK AO2
KSBO 221933Z AUTO 22010G15KT 10SM SCT049 34/22 A2987 RMK AO2
KSBO 221913Z AUTO 26007KT 10SM SCT049 35/22 A2988 RMK AO2 LTG DSNT N
KSBO 221832Z AUTO 22008KT 10SM SCT047 34/22 A2990 RMK AO2 LTG DSNT N
KSBO 221813Z AUTO 23010KT 10SM BKN045 34/23 A2990 RMK AO2
KSBO 221752Z AUTO 26006KT 10SM BKN043 BKN055 33/23 A2990 RMK AO2
KSBO 221734Z AUTO 28005KT 10SM SCT038 BKN048 33/23 A2990 RMK AO2
KSBO 221654Z AUTO 23007KT 10SM SCT034 33/23 A2991 RMK AO2
KSBO 221632Z AUTO 26008KT 10SM SCT030 SCT036 32/23 A2991 RMK AO2
KSBO 221613Z AUTO 23006KT 10SM SCT033 32/23 A2991 RMK AO2
KSBO 221552Z AUTO 20008KT 10SM SCT030 32/24 A2991 RMK AO2
KSBO 221532Z AUTO 22005KT 10SM CLR 31/24 A2991 RMK AO2
KSBO 221512Z AUTO 20006KT 10SM CLR 31/24 A2991 RMK AO2 LTG DSNT NE AND E
KSBO 221452Z AUTO 21006KT 10SM CLR 31/24 A2990 RMK AO2
KSBO 221353Z AUTO 28005KT 10SM SCT020 29/23 A2992 RMK AO2
KSBO 221333Z AUTO 23007KT 10SM CLR 28/23 A2991 RMK AO2
KSBO 221313Z AUTO 27005KT 10SM SCT020 28/23 A2992 RMK AO2
KSBO 221252Z AUTO 28008KT 10SM CLR 28/23 A2992 RMK AO2
KSBO 221233Z AUTO 24005KT 10SM CLR 28/23 A2992 RMK AO2
KSBO 221212Z AUTO 26005KT 10SM CLR 27/23 A2992 RMK AO2
KSBO 221153Z AUTO 27005KT 10SM CLR 27/23 A2992 RMK AO2
KSBO 221133Z AUTO 26003KT 10SM CLR 26/23 A2992 RMK AO2
KSBO 221113Z AUTO 25003KT 10SM CLR 26/23 A2991 RMK AO2
KSBO 221033Z AUTO 25003KT 10SM CLR 26/23 A2990 RMK AO2
KSBO 220952Z AUTO 27004KT 10SM CLR 26/23 A2989 RMK AO2
KSBO 220932Z AUTO 28003KT 10SM CLR 25/23 A2988 RMK AO2
KSBO 220913Z AUTO 26003KT 10SM CLR 25/23 A2988 RMK AO2
KSBO 220852Z AUTO 27003KT 10SM SCT110 25/22 A2987 RMK AO2
KSBO 220832Z AUTO 26004KT 10SM CLR 25/22 A2987 RMK AO2
KSBO 220732Z AUTO 00000KT 10SM CLR 25/22 A2986 RMK AO2
KSBO 220714Z AUTO 27003KT 10SM CLR 25/22 A2985 RMK AO2
KSBO 220633Z AUTO 00000KT 10SM CLR 25/22 A2985 RMK AO2
KSBO 220612Z AUTO 00000KT 10SM CLR 26/22 A2985 RMK AO2
KSBO 220554Z AUTO 00000KT 10SM CLR 26/22 A2986 RMK AO2
KSBO 220532Z AUTO 00000KT 10SM CLR 26/22 A2986 RMK AO2
KSBO 220512Z AUTO 00000KT 10SM CLR 26/22 A2987 RMK AO2
KSBO 220454Z AUTO 00000KT 10SM CLR 26/23 A2987 RMK AO2
KSBO 220432Z AUTO 00000KT 10SM CLR 27/22 A2988 RMK AO2
KSBO 220352Z AUTO 29003KT 10SM CLR 27/22 A2989 RMK AO2
KSBO 220333Z AUTO 27004KT 10SM CLR 28/22 A2989 RMK AO2
KSBO 220312Z AUTO 28003KT 10SM CLR 28/22 A2989 RMK AO2
KSBO 220254Z AUTO 27004KT 10SM CLR 28/23 A2989 RMK AO2
KSBO 220213Z AUTO 00000KT 10SM SCT050 28/23 A2988 RMK AO2
KSBO 220153Z AUTO 00000KT 10SM CLR 28/23 A2987 RMK AO2